createdAt,value
2022-11-21T00:00:44.767Z,0.30
2022-11-21T00:03:11.902Z,0.40
2022-11-21T00:05:47.685Z,1.20
2022-11-21T00:08:16.388Z,0.60
2022-11-21T00:10:43.088Z,0.43
2022-11-21T00:13:20.599Z,0.50
2022-11-21T00:15:47.880Z,0.25
2022-11-21T00:18:15.363Z,0.45
2022-11-21T00:20:42.550Z,0.50
2022-11-21T00:23:09.352Z,0.10
2022-11-21T00:25:36.377Z,0.30
2022-11-21T00:28:02.962Z,0.22
2022-11-21T00:30:29.966Z,0.30
2022-11-21T00:32:58.431Z,0.40
2022-11-21T00:35:24.872Z,0.50
2022-11-21T00:37:51.210Z,0.32
2022-11-21T00:40:18.187Z,0.68
2022-11-21T00:42:44.635Z,0.40
2022-11-21T00:45:11.764Z,1.10
2022-11-21T00:47:38.138Z,0.57
2022-11-21T00:50:04.954Z,0.73
2022-11-21T00:52:31.278Z,0.65
2022-11-21T00:54:57.717Z,0.60
2022-11-21T00:57:24.047Z,0.40
2022-11-21T00:59:50.413Z,0.50
2022-11-21T01:02:16.768Z,0.70
2022-11-21T01:04:43.271Z,0.82
2022-11-21T01:07:09.657Z,0.77
2022-11-21T01:09:36.029Z,0.80
2022-11-21T01:12:02.386Z,0.80
2022-11-21T01:14:29.237Z,1.48
2022-11-21T01:16:55.737Z,0.82
2022-11-21T01:19:22.233Z,0.88
2022-11-21T01:21:48.644Z,0.85
2022-11-21T01:24:15.029Z,1.40
2022-11-21T01:26:41.442Z,0.98
2022-11-21T01:29:09.191Z,2.85
2022-11-21T01:31:36.113Z,1.13
2022-11-21T01:34:02.745Z,1.05
2022-11-21T01:36:31.745Z,1.05
2022-11-21T01:39:00.468Z,1.92
2022-11-21T01:41:35.424Z,1.30
2022-11-21T01:44:04.195Z,0.73
2022-11-21T01:46:30.523Z,0.98
2022-11-21T01:48:57.009Z,1.45
2022-11-21T01:51:34.090Z,0.93
2022-11-21T01:54:26.708Z,1.17
2022-11-21T01:57:05.601Z,1.50
2022-11-21T01:59:39.224Z,1.50
2022-11-21T02:02:10.580Z,1.27
2022-11-21T02:04:38.791Z,1.00
2022-11-21T02:07:07.096Z,1.92
2022-11-21T02:09:37.303Z,1.67
2022-11-21T02:12:17.233Z,1.58
2022-11-21T02:14:44.466Z,1.60
2022-11-21T02:17:11.961Z,1.25
2022-11-21T02:19:48.683Z,1.45
2022-11-21T02:22:40.439Z,1.73
2022-11-21T02:25:14.189Z,1.80
2022-11-21T02:27:40.991Z,2.67
2022-11-21T02:30:09.818Z,3.03
2022-11-21T02:32:40.243Z,2.10
2022-11-21T02:35:07.718Z,1.67
2022-11-21T02:37:36.497Z,2.22
2022-11-21T02:40:09.929Z,2.38
2022-11-21T02:42:58.077Z,1.70
2022-11-21T02:45:33.381Z,2.78
2022-11-21T02:48:03.855Z,1.83
2022-11-21T02:50:42.189Z,1.85
2022-11-21T02:53:11.589Z,1.48
2022-11-21T02:55:38.195Z,1.58
2022-11-21T02:58:05.731Z,1.63
2022-11-21T03:00:33.780Z,1.75
2022-11-21T03:03:00.232Z,2.47
2022-11-21T03:05:27.227Z,1.67
2022-11-21T03:07:53.592Z,1.60
2022-11-21T03:10:20.501Z,1.65
2022-11-21T03:12:46.874Z,1.33
2022-11-21T03:15:15.486Z,1.90
2022-11-21T03:17:42.770Z,1.60
2022-11-21T03:20:10.023Z,2.58
2022-11-21T03:22:36.423Z,2.58
2022-11-21T03:25:02.949Z,2.17
2022-11-21T03:27:29.325Z,2.33
2022-11-21T03:29:55.685Z,2.28
2022-11-21T03:32:22.127Z,1.52
2022-11-21T03:34:48.581Z,2.10
2022-11-21T03:37:14.988Z,2.10
2022-11-21T03:39:41.328Z,1.45
2022-11-21T03:42:07.790Z,1.95
2022-11-21T03:44:34.165Z,1.63
2022-11-21T03:47:00.553Z,1.90
2022-11-21T03:49:26.923Z,2.45
2022-11-21T03:51:53.276Z,2.38
2022-11-21T03:54:19.704Z,2.67
2022-11-21T03:56:46.106Z,1.83
2022-11-21T03:59:12.482Z,1.88
2022-11-21T04:01:39.135Z,2.28
2022-11-21T04:04:05.684Z,1.90
2022-11-21T04:06:32.226Z,2.35
2022-11-21T04:08:58.676Z,1.95
2022-11-21T04:11:25.248Z,2.08
2022-11-21T04:13:54.412Z,1.90
2022-11-21T04:16:20.845Z,3.10
2022-11-21T04:18:47.565Z,1.70
2022-11-21T04:21:14.298Z,2.22
2022-11-21T04:23:40.756Z,1.85
2022-11-21T04:26:07.177Z,1.35
2022-11-21T04:28:33.549Z,1.80
2022-11-21T04:31:09.912Z,1.60
2022-11-21T04:33:36.580Z,1.38
2022-11-21T04:36:02.997Z,1.33
2022-11-21T04:38:29.406Z,1.63
2022-11-21T04:40:55.771Z,1.55
2022-11-21T04:43:22.187Z,1.33
2022-11-21T04:45:48.737Z,1.88
2022-11-21T04:48:15.132Z,1.42
2022-11-21T04:50:41.520Z,1.27
2022-11-21T04:53:07.885Z,1.70
2022-11-21T04:55:34.397Z,1.27
2022-11-21T04:58:00.871Z,1.33
2022-11-21T05:00:27.367Z,1.65
2022-11-21T05:02:54.003Z,1.00
2022-11-21T05:05:20.441Z,1.52
2022-11-21T05:07:46.840Z,1.45
2022-11-21T05:10:13.184Z,2.08
2022-11-21T05:12:58.232Z,1.95
2022-11-21T05:15:25.176Z,1.30
2022-11-21T05:17:52.093Z,1.65
2022-11-21T05:20:18.991Z,1.40
2022-11-21T05:22:50.768Z,1.50
2022-11-21T05:25:17.160Z,1.08
2022-11-21T05:27:43.571Z,1.02
2022-11-21T05:30:11.241Z,1.27
2022-11-21T05:32:37.777Z,1.08
2022-11-21T05:35:04.416Z,1.10
2022-11-21T05:37:30.815Z,0.88
2022-11-21T05:39:57.270Z,1.33
2022-11-21T05:42:43.614Z,1.10
2022-11-21T05:45:10.253Z,0.77
2022-11-21T05:47:36.956Z,0.90
2022-11-21T05:50:04.043Z,1.23
2022-11-21T05:52:30.440Z,1.00
2022-11-21T05:54:56.807Z,0.98
2022-11-21T05:57:23.209Z,1.25
2022-11-21T05:59:49.614Z,1.05
2022-11-21T06:02:51.461Z,1.45
2022-11-21T06:05:17.963Z,1.08
2022-11-21T06:07:44.434Z,1.95
2022-11-21T06:10:10.843Z,0.88
2022-11-21T06:12:37.169Z,1.00
2022-11-21T06:15:03.924Z,1.08
2022-11-21T06:17:30.275Z,1.00
2022-11-21T06:19:56.639Z,1.00
2022-11-21T06:22:22.991Z,0.88
2022-11-21T06:24:49.466Z,0.80
2022-11-21T06:27:15.815Z,0.82
2022-11-21T06:29:42.221Z,1.42
2022-11-21T06:32:08.592Z,0.82
2022-11-21T06:34:34.989Z,1.20
2022-11-21T06:37:01.452Z,1.20
2022-11-21T06:39:27.888Z,1.27
2022-11-21T06:41:54.266Z,1.20
2022-11-21T06:44:20.663Z,1.73
2022-11-21T06:46:50.981Z,1.80
2022-11-21T06:49:17.979Z,2.15
2022-11-21T06:51:44.424Z,1.90
2022-11-21T06:54:15.214Z,2.08
2022-11-21T06:56:42.761Z,1.70
2022-11-21T06:59:09.335Z,2.88
2022-11-21T07:01:35.853Z,1.60
2022-11-21T07:04:02.268Z,1.98
2022-11-21T07:06:28.666Z,1.77
2022-11-21T07:09:25.253Z,1.77
2022-11-21T07:11:41.434Z,1.20
2022-11-21T07:14:09.332Z,1.05
2022-11-21T07:16:37.138Z,0.85
2022-11-21T07:19:03.627Z,1.23
2022-11-21T07:21:30.131Z,1.35
2022-11-21T07:23:56.493Z,1.25
2022-11-21T07:26:23.132Z,1.30
2022-11-21T07:28:49.546Z,1.58
2022-11-21T07:31:15.947Z,1.50
2022-11-21T07:33:46.661Z,1.30
2022-11-21T07:36:13.176Z,1.00
2022-11-21T07:38:41.097Z,1.58
2022-11-21T07:41:07.758Z,1.10
2022-11-21T07:43:34.259Z,1.23
2022-11-21T07:46:00.669Z,1.50
2022-11-21T07:48:27.016Z,1.17
2022-11-21T07:50:53.442Z,3.35
2022-11-21T07:53:19.890Z,3.50
2022-11-21T07:55:46.365Z,1.40
2022-11-21T07:58:15.913Z,1.30
2022-11-21T08:00:42.886Z,1.25
2022-11-21T08:03:11.742Z,1.17
2022-11-21T08:05:39.832Z,1.65
2022-11-21T08:08:07.373Z,1.50
2022-11-21T08:10:37.554Z,1.98
2022-11-21T08:13:04.018Z,2.08
2022-11-21T08:15:30.473Z,1.92
2022-11-21T08:17:56.808Z,1.63
2022-11-21T08:20:23.267Z,1.40
2022-11-21T08:22:50.326Z,1.30
2022-11-21T08:25:16.715Z,3.42
2022-11-21T08:27:43.227Z,1.35
2022-11-21T08:30:11.978Z,1.33
2022-11-21T08:32:38.562Z,1.27
2022-11-21T08:35:05.477Z,1.55
2022-11-21T08:37:32.497Z,1.40
2022-11-21T08:39:59.056Z,0.93
2022-11-21T08:42:25.802Z,1.60
2022-11-21T08:44:52.224Z,1.92
2022-11-21T08:47:20.332Z,1.08
2022-11-21T08:49:47.366Z,1.30
2022-11-21T08:52:14.663Z,1.63
2022-11-21T08:54:41.211Z,1.83
2022-11-21T08:57:07.580Z,1.90
2022-11-21T08:59:34.076Z,2.03
2022-11-21T09:02:00.713Z,1.77
2022-11-21T09:04:27.626Z,1.65
2022-11-21T09:06:54.103Z,1.70
2022-11-21T09:09:25.278Z,1.55
2022-11-21T09:11:52.134Z,1.88
2022-11-21T09:14:37.649Z,2.03
2022-11-21T09:17:22.561Z,1.60
2022-11-21T09:19:49.288Z,2.30
2022-11-21T09:22:15.609Z,1.88
2022-11-21T09:24:41.983Z,1.98
2022-11-21T09:27:08.381Z,1.98
2022-11-21T09:29:34.883Z,1.85
2022-11-21T09:32:01.331Z,2.58
2022-11-21T09:34:27.985Z,3.03
2022-11-21T09:36:55.393Z,1.75
2022-11-21T09:39:21.762Z,1.23
2022-11-21T09:41:54.203Z,1.90
2022-11-21T09:44:52.258Z,1.38
2022-11-21T09:47:23.812Z,2.17
2022-11-21T09:50:13.368Z,1.95
2022-11-21T09:52:47.186Z,2.80
2022-11-21T09:55:35.840Z,1.40
2022-11-21T09:58:09.148Z,1.23
2022-11-21T10:00:35.824Z,1.20
2022-11-21T10:03:02.343Z,2.53
2022-11-21T10:05:49.923Z,1.40
2022-11-21T10:08:30.714Z,1.35
2022-11-21T10:11:21.270Z,1.70
2022-11-21T10:14:11.004Z,2.33
2022-11-21T10:16:49.463Z,1.52
2022-11-21T10:19:31.751Z,1.33
2022-11-21T10:22:43.150Z,0.98
2022-11-21T10:25:32.932Z,1.15
2022-11-21T10:28:19.102Z,1.73
2022-11-21T10:30:47.033Z,1.27
2022-11-21T10:33:41.086Z,1.70
2022-11-21T10:36:23.369Z,1.38
2022-11-21T10:38:50.225Z,1.20
2022-11-21T10:41:42.475Z,1.05
2022-11-21T10:44:45.026Z,2.10
2022-11-21T10:47:27.475Z,1.35
2022-11-21T10:50:08.994Z,1.40
2022-11-21T10:52:42.708Z,1.50
2022-11-21T10:55:12.002Z,1.40
2022-11-21T10:57:50.185Z,0.90
2022-11-21T11:00:20.891Z,1.00
2022-11-21T11:02:56.462Z,1.17
2022-11-21T11:05:24.803Z,0.90
2022-11-21T11:08:20.636Z,0.90
2022-11-21T11:11:07.430Z,1.25
2022-11-21T11:13:53.226Z,1.05
2022-11-21T11:16:22.272Z,1.33
2022-11-21T11:18:59.890Z,0.80
2022-11-21T11:21:39.436Z,0.75
2022-11-21T11:24:14.124Z,0.75
2022-11-21T11:26:48.104Z,0.73
2022-11-21T11:29:17.193Z,0.85
2022-11-21T11:31:45.943Z,1.38
2022-11-21T11:34:17.590Z,1.13
2022-11-21T11:37:09.274Z,0.80
2022-11-21T11:39:51.160Z,0.90
2022-11-21T11:42:42.511Z,0.80
2022-11-21T11:45:30.467Z,0.90
2022-11-21T11:47:59.596Z,0.85
2022-11-21T11:50:43.377Z,1.00
2022-11-21T11:53:20.151Z,1.02
2022-11-21T11:55:53.146Z,1.10
2022-11-21T12:01:20.452Z,0.98
2022-11-21T12:03:57.953Z,0.93
2022-11-21T12:06:52.580Z,0.85
2022-11-21T12:09:31.583Z,1.33
2022-11-21T12:12:27.653Z,0.95
2022-11-21T12:15:30.038Z,1.80
2022-11-21T12:18:16.216Z,1.00
2022-11-21T12:21:00.562Z,1.35
2022-11-21T12:23:56.653Z,0.80
2022-11-21T12:26:36.502Z,0.90
2022-11-21T12:29:30.865Z,0.95
2022-11-21T12:32:04.298Z,1.02
2022-11-21T12:37:16.723Z,1.20
2022-11-21T12:40:10.383Z,0.70
2022-11-21T12:42:58.693Z,1.20
2022-11-21T12:45:30.178Z,0.75
2022-11-21T12:48:37.635Z,0.98
2022-11-21T12:51:46.008Z,0.90
2022-11-21T12:54:30.994Z,0.75
2022-11-21T12:57:11.519Z,1.30
2022-11-21T12:59:50.661Z,0.77
2022-11-21T13:03:07.769Z,0.98
2022-11-21T13:05:40.519Z,0.98
2022-11-21T13:08:11.978Z,1.40
2022-11-21T13:10:50.495Z,0.60
2022-11-21T13:13:23.744Z,1.45
2022-11-21T13:16:02.588Z,1.10
2022-11-21T13:18:36.701Z,1.52
2022-11-21T13:21:03.203Z,0.90
2022-11-21T13:23:41.376Z,1.27
2022-11-21T13:26:30.232Z,1.38
2022-11-21T13:29:15.793Z,0.75
2022-11-21T13:31:43.330Z,1.33
2022-11-21T13:34:31.601Z,1.40
2022-11-21T13:36:58.925Z,0.98
2022-11-21T13:39:29.053Z,1.60
2022-11-21T13:42:20.519Z,0.80
2022-11-21T13:44:47.626Z,0.80
2022-11-21T13:47:26.172Z,1.00
2022-11-21T13:50:16.355Z,1.33
2022-11-21T13:53:04.188Z,2.20
2022-11-21T13:55:43.889Z,1.02
2022-11-21T13:58:16.235Z,1.17
2022-11-21T14:01:40.282Z,1.00
2022-11-21T14:04:37.642Z,2.75
2022-11-21T14:07:22.788Z,1.60
2022-11-21T14:09:54.212Z,2.80
2022-11-21T14:12:37.268Z,1.40
2022-11-21T14:15:28.402Z,1.40
2022-11-21T14:17:59.850Z,1.60
2022-11-21T14:20:28.155Z,2.00
2022-11-21T14:23:15.593Z,1.95
2022-11-21T14:25:49.079Z,1.55
2022-11-21T14:28:23.158Z,1.40
2022-11-21T14:31:06.604Z,1.80
2022-11-21T14:36:18.728Z,1.67
2022-11-21T14:39:02.097Z,1.08
2022-11-21T14:41:36.903Z,1.35
2022-11-21T14:44:06.083Z,1.65
2022-11-21T14:46:39.767Z,1.67
2022-11-21T14:49:12.273Z,1.92
2022-11-21T14:51:40.548Z,1.45
2022-11-21T14:54:15.837Z,1.25
2022-11-21T14:56:42.281Z,1.38
2022-11-21T14:59:24.725Z,1.30
2022-11-21T15:02:03.925Z,1.98
2022-11-21T15:04:33.335Z,1.77
2022-11-21T15:07:00.200Z,1.77
2022-11-21T15:12:19.443Z,1.90
2022-11-21T15:14:55.226Z,2.40
2022-11-21T15:17:24.240Z,2.00
2022-11-21T15:20:11.214Z,2.38
2022-11-21T15:22:41.187Z,2.22
2022-11-21T15:25:15.479Z,2.28
2022-11-21T15:27:42.862Z,2.00
2022-11-21T15:30:09.161Z,2.30
2022-11-21T15:33:13.197Z,1.30
2022-11-21T15:35:41.978Z,1.80
2022-11-21T15:38:30.933Z,1.90
2022-11-21T15:41:09.302Z,1.83
2022-11-21T15:43:35.765Z,2.33
2022-11-21T15:46:16.745Z,4.00
2022-11-21T15:48:52.714Z,3.17
2022-11-21T15:51:51.208Z,2.58
2022-11-21T15:54:17.784Z,2.30
2022-11-21T15:56:44.582Z,2.53
2022-11-21T15:59:10.933Z,3.20
2022-11-21T16:01:37.600Z,1.88
2022-11-21T16:04:06.483Z,1.40
2022-11-21T16:06:34.197Z,1.60
2022-11-21T16:09:01.881Z,2.28
2022-11-21T16:11:29.463Z,2.40
2022-11-21T16:14:00.638Z,3.30
2022-11-21T16:16:29.930Z,2.33
2022-11-21T16:18:56.631Z,2.95
2022-11-21T16:21:23.792Z,2.55
2022-11-21T16:23:50.566Z,3.10
2022-11-21T16:26:17.598Z,3.40
2022-11-21T16:28:44.133Z,3.42
2022-11-21T16:31:21.018Z,3.88
2022-11-21T16:33:47.475Z,3.10
2022-11-21T16:36:18.639Z,4.72
2022-11-21T16:38:45.174Z,4.43
2022-11-21T16:41:13.257Z,4.43
2022-11-21T16:43:47.449Z,3.63
2022-11-21T16:46:14.841Z,4.63
2022-11-21T16:48:41.692Z,11.57
2022-11-21T16:51:19.444Z,14.90
2022-11-21T16:53:48.166Z,7.85
2022-11-21T16:56:15.768Z,5.70
2022-11-21T16:58:43.184Z,4.45
2022-11-21T17:01:18.548Z,3.45
2022-11-21T17:03:47.261Z,4.05
2022-11-21T17:06:18.382Z,3.88
2022-11-21T17:08:45.241Z,6.28
2022-11-21T17:11:13.511Z,5.75
2022-11-21T17:13:40.008Z,5.57
2022-11-21T17:16:10.998Z,4.22
2022-11-21T17:18:38.149Z,4.78
2022-11-21T17:21:07.139Z,4.70
2022-11-21T17:23:34.268Z,3.80
2022-11-21T17:26:02.731Z,3.90
2022-11-21T17:28:30.059Z,4.93
2022-11-21T17:30:56.439Z,3.50
2022-11-21T17:33:22.825Z,3.78
2022-11-21T17:35:49.240Z,4.28
2022-11-21T17:38:15.617Z,5.97
2022-11-21T17:40:42.085Z,4.75
2022-11-21T17:43:08.893Z,4.18
2022-11-21T17:45:35.855Z,3.65
2022-11-21T17:48:02.277Z,4.80
2022-11-21T17:50:28.621Z,4.10
2022-11-21T17:52:57.002Z,4.72
2022-11-21T17:55:23.329Z,3.85
2022-11-21T17:57:49.897Z,3.72
2022-11-21T18:00:16.324Z,3.90
2022-11-21T18:02:42.943Z,4.50
2022-11-21T18:05:09.459Z,4.22
2022-11-21T18:07:37.540Z,3.40
2022-11-21T18:10:27.373Z,3.78
2022-11-21T18:12:51.494Z,3.78
2022-11-21T18:15:17.995Z,3.88
2022-11-21T18:17:44.471Z,3.65
2022-11-21T18:20:11.165Z,3.20
2022-11-21T18:22:37.580Z,3.72
2022-11-21T18:25:04.165Z,4.50
2022-11-21T18:27:30.643Z,5.10
2022-11-21T18:29:57.006Z,4.00
2022-11-21T18:32:24.333Z,3.90
2022-11-21T18:34:50.667Z,4.25
2022-11-21T18:37:17.118Z,3.25
2022-11-21T18:39:43.485Z,3.80
2022-11-21T18:42:09.909Z,3.63
2022-11-21T18:44:36.293Z,3.83
2022-11-21T18:47:11.976Z,3.10
2022-11-21T18:52:12.294Z,4.60
2022-11-21T18:54:39.834Z,3.03
2022-11-21T18:57:06.174Z,2.78
2022-11-21T18:59:32.671Z,3.08
2022-11-21T19:01:59.129Z,2.97
2022-11-21T19:04:25.720Z,3.30
2022-11-21T19:06:52.057Z,3.20
2022-11-21T19:09:18.788Z,3.50
2022-11-21T19:11:45.184Z,3.03
2022-11-21T19:14:11.660Z,3.40
2022-11-21T19:16:38.079Z,3.03
2022-11-21T19:21:56.950Z,2.88
2022-11-21T19:24:23.364Z,2.92
2022-11-21T19:26:50.508Z,3.50
2022-11-21T19:29:17.548Z,3.47
2022-11-21T19:31:45.916Z,4.07
2022-11-21T19:34:14.592Z,4.15
2022-11-21T19:36:42.029Z,3.58
2022-11-21T19:39:08.911Z,3.75
2022-11-21T19:41:35.352Z,3.38
2022-11-21T19:44:02.314Z,3.05
2022-11-21T19:46:39.382Z,3.35
2022-11-21T19:49:07.343Z,3.10
2022-11-21T19:51:44.395Z,4.07
2022-11-21T19:54:13.211Z,3.42
2022-11-21T19:56:40.210Z,3.63
2022-11-21T19:59:06.664Z,3.70
2022-11-21T20:01:34.354Z,4.10
2022-11-21T20:04:03.678Z,3.90
2022-11-21T20:06:32.920Z,4.38
2022-11-21T20:09:21.564Z,3.78
2022-11-21T20:11:50.179Z,3.90
2022-11-21T20:14:21.838Z,4.55
2022-11-21T20:16:49.192Z,4.68
2022-11-21T20:19:18.201Z,4.47
2022-11-21T20:21:45.398Z,4.45
2022-11-21T20:24:12.502Z,4.07
2022-11-21T20:26:39.567Z,4.82
2022-11-21T20:29:06.347Z,4.60
2022-11-21T20:31:36.871Z,4.55
2022-11-21T20:34:06.480Z,4.03
2022-11-21T20:36:34.924Z,3.47
2022-11-21T20:39:04.714Z,5.50
2022-11-21T20:41:34.197Z,4.45
2022-11-21T20:46:49.717Z,6.03
2022-11-21T20:49:17.265Z,3.80
2022-11-21T20:53:26.405Z,4.05
2022-11-21T20:54:31.229Z,3.60
2022-11-21T20:56:57.931Z,3.97
2022-11-21T20:59:25.762Z,3.83
2022-11-21T21:01:52.493Z,3.85
2022-11-21T21:04:19.125Z,3.25
2022-11-21T21:06:45.659Z,3.28
2022-11-21T21:09:12.148Z,3.47
2022-11-21T21:11:52.005Z,4.57
2022-11-21T21:14:20.048Z,4.10
2022-11-21T21:16:46.571Z,3.83
2022-11-21T21:19:13.049Z,3.35
2022-11-21T21:21:41.341Z,3.63
2022-11-21T21:24:09.944Z,4.30
2022-11-21T21:26:42.658Z,3.47
2022-11-21T21:29:12.488Z,2.90
2022-11-21T21:31:40.252Z,3.10
2022-11-21T21:34:10.012Z,3.30
2022-11-21T21:36:36.656Z,3.40
2022-11-21T21:39:04.088Z,3.60
2022-11-21T21:41:31.365Z,3.20
2022-11-21T21:43:58.271Z,2.70
2022-11-21T21:46:26.660Z,3.00
2022-11-21T21:48:56.016Z,3.15
2022-11-21T21:51:27.947Z,2.53
2022-11-21T21:53:55.862Z,3.30
2022-11-21T21:56:23.760Z,2.70
2022-11-21T21:58:51.071Z,3.35
2022-11-21T22:01:23.601Z,2.35
2022-11-21T22:03:53.663Z,2.97
2022-11-21T22:06:20.442Z,3.47
2022-11-21T22:08:48.167Z,2.50
2022-11-21T22:11:19.623Z,2.45
2022-11-21T22:13:50.567Z,2.53
2022-11-21T22:16:17.417Z,2.67
2022-11-21T22:18:43.817Z,2.92
2022-11-21T22:21:34.286Z,2.72
2022-11-21T22:24:24.829Z,2.38
2022-11-21T22:26:48.795Z,2.78
2022-11-21T22:29:15.173Z,2.17
2022-11-21T22:31:41.664Z,3.03
2022-11-21T22:34:11.473Z,2.40
2022-11-21T22:36:37.890Z,2.63
2022-11-21T22:39:04.273Z,2.03
2022-11-21T22:41:30.674Z,1.90
2022-11-21T22:43:58.677Z,2.22
2022-11-21T22:46:27.150Z,1.40
2022-11-21T22:48:53.651Z,2.60
2022-11-21T22:51:23.076Z,1.77
2022-11-21T22:53:50.039Z,2.42
2022-11-21T22:56:19.342Z,2.40
2022-11-21T22:58:46.711Z,2.58
2022-11-21T23:01:15.995Z,2.45
2022-11-21T23:03:43.117Z,2.10
2022-11-21T23:06:10.942Z,2.67
2022-11-21T23:08:38.159Z,2.22
2022-11-21T23:11:06.805Z,2.47
2022-11-21T23:13:34.774Z,2.47
2022-11-21T23:16:01.729Z,2.40
2022-11-21T23:18:28.076Z,2.28
2022-11-21T23:20:54.563Z,2.20
2022-11-21T23:23:21.051Z,2.10
2022-11-21T23:25:47.566Z,3.67
2022-11-21T23:28:14.171Z,1.73
2022-11-21T23:30:40.892Z,2.45
2022-11-21T23:33:07.327Z,2.00
2022-11-21T23:35:33.743Z,1.50
2022-11-21T23:38:00.096Z,2.40
2022-11-21T23:40:26.434Z,2.30
2022-11-21T23:42:52.744Z,2.60
2022-11-21T23:45:19.132Z,2.05
2022-11-21T23:47:45.514Z,2.92
2022-11-21T23:50:12.156Z,2.55
2022-11-21T23:52:38.529Z,2.70
2022-11-21T23:55:05.328Z,2.35
2022-11-21T23:57:31.698Z,2.20
2022-11-21T23:59:58.029Z,2.80
